Rogers, Ohio
Current Conditions -  °F | °C
As of 9:56 PM on Monday 26 Jan 2015 (Local Time) from KUCP Reporting Station
Overcast Overcast  
Wind Chill: 11°   Ceiling: 1300
Heat Index: 19°   Visibility: 10mi
Dew Point: 15°   Wind: 6mph
Humidity: 85%   Direction: 310°NW
Pressure: 29.87"   Gusts: NA
Location:  40.79°N, 80.63°W
Report Text: KUCP 270256Z AUTO 31005KT 10SM OVC013 M07/M09 A2987 RMK AO2 51009 T10721094 SLP148
Loading
Personal Weather Stations






























Interactive Weather Map New forecast layout! Learn more

10-Day Weather Forecast

Advertisements
Track Severe Weather on mobile